<?xml version="1.0" encoding="UTF-8"?>
<gpx xmlns="http://www.topografix.com/GPX/1/1" xmlns:xsi="http://www.w3.org/2001/XMLSchema-instance" version="1.1" creator="Trace de Trail" xsi:schemaLocation="http://www.topografix.com/GPX/1/1 http://www.topografix.com/GPX/1/1/gpx.xsd">
  <metadata>
    <name>Chamrousse 1650 - Lacs Robert par Breche Sud</name>
    <desc>Parcours créé sur Trace de Trail</desc>
    <link href="https://tracedetrail.fr/fr/trace/265283">
      <text>Cartographie du parcours</text>
    </link>
    <time>2024-07-24T12:33:33+00:00</time>
  </metadata>
  <trk>
    <name>Chamrousse 1650 - Lacs Robert par Breche Sud sur TraceDeTrail.fr</name>
    <src>Trace de Trail</src>
    <trkseg>
      <trkpt lat="45.12615" lon="5.87919">
        <ele>1671</ele>
        <time>2024-07-24T12:33:33+00:00</time>
      </trkpt>
      <trkpt lat="45.12649" lon="5.87944">
        <ele>1678</ele>
        <time>2024-07-24T12:33:36+00:00</time>
      </trkpt>
      <trkpt lat="45.12683" lon="5.87969">
        <ele>1689</ele>
        <time>2024-07-24T12:33:39+00:00</time>
      </trkpt>
      <trkpt lat="45.12717" lon="5.87994">
        <ele>1697</ele>
        <time>2024-07-24T12:33:42+00:00</time>
      </trkpt>
      <trkpt lat="45.12751" lon="5.88019">
        <ele>1710</ele>
        <time>2024-07-24T12:33:45+00:00</time>
      </trkpt>
      <trkpt lat="45.12791" lon="5.88048">
        <ele>1725</ele>
        <time>2024-07-24T12:33:48+00:00</time>
      </trkpt>
      <trkpt lat="45.12803" lon="5.88087">
        <ele>1727</ele>
        <time>2024-07-24T12:33:51+00:00</time>
      </trkpt>
      <trkpt lat="45.12824" lon="5.88155">
        <ele>1736</ele>
        <time>2024-07-24T12:33:54+00:00</time>
      </trkpt>
      <trkpt lat="45.1284" lon="5.88187">
        <ele>1739</ele>
        <time>2024-07-24T12:33:57+00:00</time>
      </trkpt>
      <trkpt lat="45.12862" lon="5.88232">
        <ele>1751</ele>
        <time>2024-07-24T12:34:00+00:00</time>
      </trkpt>
      <trkpt lat="45.12885" lon="5.8828">
        <ele>1765</ele>
        <time>2024-07-24T12:34:03+00:00</time>
      </trkpt>
      <trkpt lat="45.12868" lon="5.8832">
        <ele>1769</ele>
        <time>2024-07-24T12:34:06+00:00</time>
      </trkpt>
      <trkpt lat="45.12851" lon="5.8836">
        <ele>1773</ele>
        <time>2024-07-24T12:34:09+00:00</time>
      </trkpt>
      <trkpt lat="45.1283" lon="5.88409">
        <ele>1782</ele>
        <time>2024-07-24T12:34:12+00:00</time>
      </trkpt>
      <trkpt lat="45.12807" lon="5.88441">
        <ele>1791</ele>
        <time>2024-07-24T12:34:15+00:00</time>
      </trkpt>
      <trkpt lat="45.12784" lon="5.88472">
        <ele>1794</ele>
        <time>2024-07-24T12:34:18+00:00</time>
      </trkpt>
      <trkpt lat="45.12758" lon="5.88507">
        <ele>1802</ele>
        <time>2024-07-24T12:34:21+00:00</time>
      </trkpt>
      <trkpt lat="45.12746" lon="5.88542">
        <ele>1808</ele>
        <time>2024-07-24T12:34:24+00:00</time>
      </trkpt>
      <trkpt lat="45.1273" lon="5.88589">
        <ele>1813</ele>
        <time>2024-07-24T12:34:27+00:00</time>
      </trkpt>
      <trkpt lat="45.12729" lon="5.88631">
        <ele>1814</ele>
        <time>2024-07-24T12:34:30+00:00</time>
      </trkpt>
      <trkpt lat="45.12727" lon="5.88701">
        <ele>1816</ele>
        <time>2024-07-24T12:34:33+00:00</time>
      </trkpt>
      <trkpt lat="45.1274" lon="5.88746">
        <ele>1819</ele>
        <time>2024-07-24T12:34:36+00:00</time>
      </trkpt>
      <trkpt lat="45.12752" lon="5.88792">
        <ele>1822</ele>
        <time>2024-07-24T12:34:39+00:00</time>
      </trkpt>
      <trkpt lat="45.12762" lon="5.88826">
        <ele>1824</ele>
        <time>2024-07-24T12:34:42+00:00</time>
      </trkpt>
      <trkpt lat="45.12773" lon="5.88868">
        <ele>1824</ele>
        <time>2024-07-24T12:34:45+00:00</time>
      </trkpt>
      <trkpt lat="45.12751" lon="5.88904">
        <ele>1829</ele>
        <time>2024-07-24T12:34:48+00:00</time>
      </trkpt>
      <trkpt lat="45.1273" lon="5.88941">
        <ele>1839</ele>
        <time>2024-07-24T12:34:51+00:00</time>
      </trkpt>
      <trkpt lat="45.127" lon="5.88992">
        <ele>1852</ele>
        <time>2024-07-24T12:34:54+00:00</time>
      </trkpt>
      <trkpt lat="45.1271" lon="5.89037">
        <ele>1858</ele>
        <time>2024-07-24T12:34:57+00:00</time>
      </trkpt>
      <trkpt lat="45.1272" lon="5.89082">
        <ele>1863</ele>
        <time>2024-07-24T12:35:00+00:00</time>
      </trkpt>
      <trkpt lat="45.12733" lon="5.89143">
        <ele>1871</ele>
        <time>2024-07-24T12:35:03+00:00</time>
      </trkpt>
      <trkpt lat="45.12731" lon="5.89182">
        <ele>1882</ele>
        <time>2024-07-24T12:35:06+00:00</time>
      </trkpt>
      <trkpt lat="45.12727" lon="5.89239">
        <ele>1904</ele>
        <time>2024-07-24T12:35:09+00:00</time>
      </trkpt>
      <trkpt lat="45.12724" lon="5.89274">
        <ele>1913</ele>
        <time>2024-07-24T12:35:12+00:00</time>
      </trkpt>
      <trkpt lat="45.12721" lon="5.89314">
        <ele>1919</ele>
        <time>2024-07-24T12:35:15+00:00</time>
      </trkpt>
      <trkpt lat="45.12743" lon="5.89346">
        <ele>1924</ele>
        <time>2024-07-24T12:35:18+00:00</time>
      </trkpt>
      <trkpt lat="45.12788" lon="5.89409">
        <ele>1925</ele>
        <time>2024-07-24T12:35:21+00:00</time>
      </trkpt>
      <trkpt lat="45.12796" lon="5.89453">
        <ele>1924</ele>
        <time>2024-07-24T12:35:24+00:00</time>
      </trkpt>
      <trkpt lat="45.12804" lon="5.89496">
        <ele>1924</ele>
        <time>2024-07-24T12:35:27+00:00</time>
      </trkpt>
      <trkpt lat="45.12812" lon="5.89542">
        <ele>1927</ele>
        <time>2024-07-24T12:35:30+00:00</time>
      </trkpt>
      <trkpt lat="45.12831" lon="5.89582">
        <ele>1933</ele>
        <time>2024-07-24T12:35:33+00:00</time>
      </trkpt>
      <trkpt lat="45.12849" lon="5.89623">
        <ele>1937</ele>
        <time>2024-07-24T12:35:36+00:00</time>
      </trkpt>
      <trkpt lat="45.12863" lon="5.89653">
        <ele>1942</ele>
        <time>2024-07-24T12:35:39+00:00</time>
      </trkpt>
      <trkpt lat="45.12879" lon="5.89688">
        <ele>1949</ele>
        <time>2024-07-24T12:35:42+00:00</time>
      </trkpt>
      <trkpt lat="45.12901" lon="5.89732">
        <ele>1949</ele>
        <time>2024-07-24T12:35:45+00:00</time>
      </trkpt>
      <trkpt lat="45.12924" lon="5.89776">
        <ele>1949</ele>
        <time>2024-07-24T12:35:48+00:00</time>
      </trkpt>
      <trkpt lat="45.12946" lon="5.8982">
        <ele>1948</ele>
        <time>2024-07-24T12:35:51+00:00</time>
      </trkpt>
      <trkpt lat="45.12964" lon="5.89855">
        <ele>1948</ele>
        <time>2024-07-24T12:35:54+00:00</time>
      </trkpt>
      <trkpt lat="45.12997" lon="5.89919">
        <ele>1950</ele>
        <time>2024-07-24T12:35:57+00:00</time>
      </trkpt>
      <trkpt lat="45.12998" lon="5.8996">
        <ele>1957</ele>
        <time>2024-07-24T12:36:00+00:00</time>
      </trkpt>
      <trkpt lat="45.12999" lon="5.90027">
        <ele>1959</ele>
        <time>2024-07-24T12:36:03+00:00</time>
      </trkpt>
      <trkpt lat="45.13001" lon="5.90081">
        <ele>1961</ele>
        <time>2024-07-24T12:36:06+00:00</time>
      </trkpt>
      <trkpt lat="45.13002" lon="5.90123">
        <ele>1962</ele>
        <time>2024-07-24T12:36:09+00:00</time>
      </trkpt>
      <trkpt lat="45.13003" lon="5.9019">
        <ele>1971</ele>
        <time>2024-07-24T12:36:12+00:00</time>
      </trkpt>
      <trkpt lat="45.13025" lon="5.90229">
        <ele>1972</ele>
        <time>2024-07-24T12:36:15+00:00</time>
      </trkpt>
      <trkpt lat="45.13047" lon="5.90268">
        <ele>1984</ele>
        <time>2024-07-24T12:36:18+00:00</time>
      </trkpt>
      <trkpt lat="45.13088" lon="5.9034">
        <ele>1998</ele>
        <time>2024-07-24T12:36:21+00:00</time>
      </trkpt>
      <trkpt lat="45.13099" lon="5.90379">
        <ele>2001</ele>
        <time>2024-07-24T12:36:24+00:00</time>
      </trkpt>
      <trkpt lat="45.13116" lon="5.90443">
        <ele>2002</ele>
        <time>2024-07-24T12:36:27+00:00</time>
      </trkpt>
      <trkpt lat="45.13131" lon="5.90494">
        <ele>2003</ele>
        <time>2024-07-24T12:36:30+00:00</time>
      </trkpt>
      <trkpt lat="45.13142" lon="5.90536">
        <ele>2004</ele>
        <time>2024-07-24T12:36:33+00:00</time>
      </trkpt>
      <trkpt lat="45.13154" lon="5.90579">
        <ele>2024</ele>
        <time>2024-07-24T12:36:36+00:00</time>
      </trkpt>
      <trkpt lat="45.13166" lon="5.90623">
        <ele>2022</ele>
        <time>2024-07-24T12:36:39+00:00</time>
      </trkpt>
      <trkpt lat="45.13166" lon="5.90671">
        <ele>2021</ele>
        <time>2024-07-24T12:36:42+00:00</time>
      </trkpt>
      <trkpt lat="45.13166" lon="5.9072">
        <ele>2026</ele>
        <time>2024-07-24T12:36:45+00:00</time>
      </trkpt>
      <trkpt lat="45.13166" lon="5.90795">
        <ele>2031</ele>
        <time>2024-07-24T12:36:48+00:00</time>
      </trkpt>
      <trkpt lat="45.13175" lon="5.90843">
        <ele>2031</ele>
        <time>2024-07-24T12:36:51+00:00</time>
      </trkpt>
      <trkpt lat="45.13182" lon="5.90887">
        <ele>2023</ele>
        <time>2024-07-24T12:36:54+00:00</time>
      </trkpt>
      <trkpt lat="45.1319" lon="5.90931">
        <ele>2022</ele>
        <time>2024-07-24T12:36:57+00:00</time>
      </trkpt>
      <trkpt lat="45.13197" lon="5.90975">
        <ele>2022</ele>
        <time>2024-07-24T12:37:00+00:00</time>
      </trkpt>
      <trkpt lat="45.13197" lon="5.91019">
        <ele>2022</ele>
        <time>2024-07-24T12:37:03+00:00</time>
      </trkpt>
      <trkpt lat="45.13197" lon="5.91056">
        <ele>2013</ele>
        <time>2024-07-24T12:37:06+00:00</time>
      </trkpt>
      <trkpt lat="45.13198" lon="5.91102">
        <ele>2005</ele>
        <time>2024-07-24T12:37:09+00:00</time>
      </trkpt>
      <trkpt lat="45.1318" lon="5.91139">
        <ele>2002</ele>
        <time>2024-07-24T12:37:12+00:00</time>
      </trkpt>
      <trkpt lat="45.13164" lon="5.9117">
        <ele>1999</ele>
        <time>2024-07-24T12:37:15+00:00</time>
      </trkpt>
      <trkpt lat="45.13144" lon="5.9121">
        <ele>1998</ele>
        <time>2024-07-24T12:37:18+00:00</time>
      </trkpt>
      <trkpt lat="45.13116" lon="5.9123">
        <ele>1996</ele>
        <time>2024-07-24T12:37:21+00:00</time>
      </trkpt>
      <trkpt lat="45.13062" lon="5.9127">
        <ele>1994</ele>
        <time>2024-07-24T12:37:24+00:00</time>
      </trkpt>
      <trkpt lat="45.1306" lon="5.91311">
        <ele>1993</ele>
        <time>2024-07-24T12:37:27+00:00</time>
      </trkpt>
      <trkpt lat="45.13058" lon="5.91378">
        <ele>1993</ele>
        <time>2024-07-24T12:37:30+00:00</time>
      </trkpt>
      <trkpt lat="45.13057" lon="5.91432">
        <ele>1993</ele>
        <time>2024-07-24T12:37:33+00:00</time>
      </trkpt>
      <trkpt lat="45.13056" lon="5.91475">
        <ele>1993</ele>
        <time>2024-07-24T12:37:36+00:00</time>
      </trkpt>
      <trkpt lat="45.13053" lon="5.91549">
        <ele>1998</ele>
        <time>2024-07-24T12:37:39+00:00</time>
      </trkpt>
      <trkpt lat="45.13062" lon="5.91594">
        <ele>1996</ele>
        <time>2024-07-24T12:37:42+00:00</time>
      </trkpt>
      <trkpt lat="45.13071" lon="5.9164">
        <ele>1996</ele>
        <time>2024-07-24T12:37:45+00:00</time>
      </trkpt>
      <trkpt lat="45.13083" lon="5.91699">
        <ele>1995</ele>
        <time>2024-07-24T12:37:48+00:00</time>
      </trkpt>
      <trkpt lat="45.13116" lon="5.91707">
        <ele>1995</ele>
        <time>2024-07-24T12:37:51+00:00</time>
      </trkpt>
      <trkpt lat="45.13116" lon="5.91707">
        <ele>1995</ele>
        <time>2024-07-24T12:37:54+00:00</time>
      </trkpt>
      <trkpt lat="45.13083" lon="5.91699">
        <ele>1995</ele>
        <time>2024-07-24T12:37:57+00:00</time>
      </trkpt>
      <trkpt lat="45.13074" lon="5.91654">
        <ele>1996</ele>
        <time>2024-07-24T12:38:00+00:00</time>
      </trkpt>
      <trkpt lat="45.13065" lon="5.91608">
        <ele>1998</ele>
        <time>2024-07-24T12:38:03+00:00</time>
      </trkpt>
      <trkpt lat="45.13053" lon="5.91549">
        <ele>1998</ele>
        <time>2024-07-24T12:38:06+00:00</time>
      </trkpt>
      <trkpt lat="45.13054" lon="5.91506">
        <ele>1995</ele>
        <time>2024-07-24T12:38:09+00:00</time>
      </trkpt>
      <trkpt lat="45.13057" lon="5.91432">
        <ele>1993</ele>
        <time>2024-07-24T12:38:12+00:00</time>
      </trkpt>
      <trkpt lat="45.13058" lon="5.91378">
        <ele>1993</ele>
        <time>2024-07-24T12:38:15+00:00</time>
      </trkpt>
      <trkpt lat="45.1306" lon="5.91337">
        <ele>1994</ele>
        <time>2024-07-24T12:38:18+00:00</time>
      </trkpt>
      <trkpt lat="45.13062" lon="5.9127">
        <ele>1994</ele>
        <time>2024-07-24T12:38:21+00:00</time>
      </trkpt>
      <trkpt lat="45.1309" lon="5.9125">
        <ele>1994</ele>
        <time>2024-07-24T12:38:24+00:00</time>
      </trkpt>
      <trkpt lat="45.13144" lon="5.9121">
        <ele>1998</ele>
        <time>2024-07-24T12:38:27+00:00</time>
      </trkpt>
      <trkpt lat="45.1316" lon="5.91179">
        <ele>2000</ele>
        <time>2024-07-24T12:38:30+00:00</time>
      </trkpt>
      <trkpt lat="45.1318" lon="5.91139">
        <ele>2002</ele>
        <time>2024-07-24T12:38:33+00:00</time>
      </trkpt>
      <trkpt lat="45.13198" lon="5.91102">
        <ele>2005</ele>
        <time>2024-07-24T12:38:36+00:00</time>
      </trkpt>
      <trkpt lat="45.13198" lon="5.91065">
        <ele>2013</ele>
        <time>2024-07-24T12:38:39+00:00</time>
      </trkpt>
      <trkpt lat="45.13197" lon="5.91019">
        <ele>2016</ele>
        <time>2024-07-24T12:38:42+00:00</time>
      </trkpt>
      <trkpt lat="45.13197" lon="5.90975">
        <ele>2020</ele>
        <time>2024-07-24T12:38:45+00:00</time>
      </trkpt>
      <trkpt lat="45.1319" lon="5.90931">
        <ele>2022</ele>
        <time>2024-07-24T12:38:48+00:00</time>
      </trkpt>
      <trkpt lat="45.13182" lon="5.90887">
        <ele>2023</ele>
        <time>2024-07-24T12:38:51+00:00</time>
      </trkpt>
      <trkpt lat="45.13175" lon="5.90843">
        <ele>2031</ele>
        <time>2024-07-24T12:38:54+00:00</time>
      </trkpt>
      <trkpt lat="45.13166" lon="5.90795">
        <ele>2031</ele>
        <time>2024-07-24T12:38:57+00:00</time>
      </trkpt>
      <trkpt lat="45.13166" lon="5.90747">
        <ele>2021</ele>
        <time>2024-07-24T12:39:00+00:00</time>
      </trkpt>
      <trkpt lat="45.13166" lon="5.90698">
        <ele>2027</ele>
        <time>2024-07-24T12:39:03+00:00</time>
      </trkpt>
      <trkpt lat="45.13166" lon="5.90623">
        <ele>2027</ele>
        <time>2024-07-24T12:39:06+00:00</time>
      </trkpt>
      <trkpt lat="45.13155" lon="5.90581">
        <ele>2015</ele>
        <time>2024-07-24T12:39:09+00:00</time>
      </trkpt>
      <trkpt lat="45.13143" lon="5.90538">
        <ele>2004</ele>
        <time>2024-07-24T12:39:12+00:00</time>
      </trkpt>
      <trkpt lat="45.13131" lon="5.90494">
        <ele>2008</ele>
        <time>2024-07-24T12:39:15+00:00</time>
      </trkpt>
      <trkpt lat="45.13116" lon="5.90443">
        <ele>2008</ele>
        <time>2024-07-24T12:39:18+00:00</time>
      </trkpt>
      <trkpt lat="45.13105" lon="5.90404">
        <ele>2008</ele>
        <time>2024-07-24T12:39:21+00:00</time>
      </trkpt>
      <trkpt lat="45.13088" lon="5.9034">
        <ele>2007</ele>
        <time>2024-07-24T12:39:24+00:00</time>
      </trkpt>
      <trkpt lat="45.13066" lon="5.90301">
        <ele>2007</ele>
        <time>2024-07-24T12:39:27+00:00</time>
      </trkpt>
      <trkpt lat="45.13044" lon="5.90262">
        <ele>1984</ele>
        <time>2024-07-24T12:39:30+00:00</time>
      </trkpt>
      <trkpt lat="45.13003" lon="5.9019">
        <ele>1971</ele>
        <time>2024-07-24T12:39:33+00:00</time>
      </trkpt>
      <trkpt lat="45.13002" lon="5.90148">
        <ele>1964</ele>
        <time>2024-07-24T12:39:36+00:00</time>
      </trkpt>
      <trkpt lat="45.13001" lon="5.90081">
        <ele>1963</ele>
        <time>2024-07-24T12:39:39+00:00</time>
      </trkpt>
      <trkpt lat="45.12999" lon="5.90027">
        <ele>1962</ele>
        <time>2024-07-24T12:39:42+00:00</time>
      </trkpt>
      <trkpt lat="45.12998" lon="5.89985">
        <ele>1959</ele>
        <time>2024-07-24T12:39:45+00:00</time>
      </trkpt>
      <trkpt lat="45.12997" lon="5.89919">
        <ele>1955</ele>
        <time>2024-07-24T12:39:48+00:00</time>
      </trkpt>
      <trkpt lat="45.12979" lon="5.89884">
        <ele>1951</ele>
        <time>2024-07-24T12:39:51+00:00</time>
      </trkpt>
      <trkpt lat="45.12946" lon="5.8982">
        <ele>1950</ele>
        <time>2024-07-24T12:39:54+00:00</time>
      </trkpt>
      <trkpt lat="45.12924" lon="5.89776">
        <ele>1949</ele>
        <time>2024-07-24T12:39:57+00:00</time>
      </trkpt>
      <trkpt lat="45.12901" lon="5.89732">
        <ele>1949</ele>
        <time>2024-07-24T12:40:00+00:00</time>
      </trkpt>
      <trkpt lat="45.12879" lon="5.89688">
        <ele>1949</ele>
        <time>2024-07-24T12:40:03+00:00</time>
      </trkpt>
      <trkpt lat="45.12865" lon="5.89658">
        <ele>1942</ele>
        <time>2024-07-24T12:40:06+00:00</time>
      </trkpt>
      <trkpt lat="45.12849" lon="5.89623">
        <ele>1937</ele>
        <time>2024-07-24T12:40:09+00:00</time>
      </trkpt>
      <trkpt lat="45.12831" lon="5.89582">
        <ele>1933</ele>
        <time>2024-07-24T12:40:12+00:00</time>
      </trkpt>
      <trkpt lat="45.12812" lon="5.89542">
        <ele>1927</ele>
        <time>2024-07-24T12:40:15+00:00</time>
      </trkpt>
      <trkpt lat="45.12804" lon="5.89498">
        <ele>1927</ele>
        <time>2024-07-24T12:40:18+00:00</time>
      </trkpt>
      <trkpt lat="45.12796" lon="5.89454">
        <ele>1927</ele>
        <time>2024-07-24T12:40:21+00:00</time>
      </trkpt>
      <trkpt lat="45.12788" lon="5.89409">
        <ele>1927</ele>
        <time>2024-07-24T12:40:24+00:00</time>
      </trkpt>
      <trkpt lat="45.12766" lon="5.89377">
        <ele>1927</ele>
        <time>2024-07-24T12:40:27+00:00</time>
      </trkpt>
      <trkpt lat="45.12721" lon="5.89314">
        <ele>1919</ele>
        <time>2024-07-24T12:40:30+00:00</time>
      </trkpt>
      <trkpt lat="45.12724" lon="5.89279">
        <ele>1913</ele>
        <time>2024-07-24T12:40:33+00:00</time>
      </trkpt>
      <trkpt lat="45.12727" lon="5.89239">
        <ele>1904</ele>
        <time>2024-07-24T12:40:36+00:00</time>
      </trkpt>
      <trkpt lat="45.12729" lon="5.89199">
        <ele>1891</ele>
        <time>2024-07-24T12:40:39+00:00</time>
      </trkpt>
      <trkpt lat="45.12733" lon="5.89143">
        <ele>1871</ele>
        <time>2024-07-24T12:40:42+00:00</time>
      </trkpt>
      <trkpt lat="45.12723" lon="5.89098">
        <ele>1864</ele>
        <time>2024-07-24T12:40:45+00:00</time>
      </trkpt>
      <trkpt lat="45.12713" lon="5.89053">
        <ele>1859</ele>
        <time>2024-07-24T12:40:48+00:00</time>
      </trkpt>
      <trkpt lat="45.127" lon="5.88992">
        <ele>1852</ele>
        <time>2024-07-24T12:40:51+00:00</time>
      </trkpt>
      <trkpt lat="45.12721" lon="5.88955">
        <ele>1843</ele>
        <time>2024-07-24T12:40:54+00:00</time>
      </trkpt>
      <trkpt lat="45.12743" lon="5.88919">
        <ele>1831</ele>
        <time>2024-07-24T12:40:57+00:00</time>
      </trkpt>
      <trkpt lat="45.12773" lon="5.88868">
        <ele>1824</ele>
        <time>2024-07-24T12:41:00+00:00</time>
      </trkpt>
      <trkpt lat="45.12762" lon="5.88826">
        <ele>1824</ele>
        <time>2024-07-24T12:41:03+00:00</time>
      </trkpt>
      <trkpt lat="45.12752" lon="5.88792">
        <ele>1822</ele>
        <time>2024-07-24T12:41:06+00:00</time>
      </trkpt>
      <trkpt lat="45.1274" lon="5.88746">
        <ele>1819</ele>
        <time>2024-07-24T12:41:09+00:00</time>
      </trkpt>
      <trkpt lat="45.12727" lon="5.88701">
        <ele>1818</ele>
        <time>2024-07-24T12:41:12+00:00</time>
      </trkpt>
      <trkpt lat="45.12728" lon="5.88659">
        <ele>1818</ele>
        <time>2024-07-24T12:41:15+00:00</time>
      </trkpt>
      <trkpt lat="45.1273" lon="5.88589">
        <ele>1813</ele>
        <time>2024-07-24T12:41:18+00:00</time>
      </trkpt>
      <trkpt lat="45.12742" lon="5.88554">
        <ele>1809</ele>
        <time>2024-07-24T12:41:21+00:00</time>
      </trkpt>
      <trkpt lat="45.12758" lon="5.88507">
        <ele>1802</ele>
        <time>2024-07-24T12:41:24+00:00</time>
      </trkpt>
      <trkpt lat="45.12781" lon="5.88475">
        <ele>1794</ele>
        <time>2024-07-24T12:41:27+00:00</time>
      </trkpt>
      <trkpt lat="45.12804" lon="5.88444">
        <ele>1791</ele>
        <time>2024-07-24T12:41:30+00:00</time>
      </trkpt>
      <trkpt lat="45.1283" lon="5.88409">
        <ele>1782</ele>
        <time>2024-07-24T12:41:33+00:00</time>
      </trkpt>
      <trkpt lat="45.12847" lon="5.88369">
        <ele>1775</ele>
        <time>2024-07-24T12:41:36+00:00</time>
      </trkpt>
      <trkpt lat="45.12864" lon="5.88329">
        <ele>1770</ele>
        <time>2024-07-24T12:41:39+00:00</time>
      </trkpt>
      <trkpt lat="45.12885" lon="5.8828">
        <ele>1765</ele>
        <time>2024-07-24T12:41:42+00:00</time>
      </trkpt>
      <trkpt lat="45.12862" lon="5.88232">
        <ele>1751</ele>
        <time>2024-07-24T12:41:45+00:00</time>
      </trkpt>
      <trkpt lat="45.12846" lon="5.882">
        <ele>1741</ele>
        <time>2024-07-24T12:41:48+00:00</time>
      </trkpt>
      <trkpt lat="45.12824" lon="5.88155">
        <ele>1736</ele>
        <time>2024-07-24T12:41:51+00:00</time>
      </trkpt>
      <trkpt lat="45.12812" lon="5.88116">
        <ele>1730</ele>
        <time>2024-07-24T12:41:54+00:00</time>
      </trkpt>
      <trkpt lat="45.12791" lon="5.88048">
        <ele>1725</ele>
        <time>2024-07-24T12:41:57+00:00</time>
      </trkpt>
      <trkpt lat="45.12757" lon="5.88023">
        <ele>1709</ele>
        <time>2024-07-24T12:42:00+00:00</time>
      </trkpt>
      <trkpt lat="45.12723" lon="5.87998">
        <ele>1700</ele>
        <time>2024-07-24T12:42:03+00:00</time>
      </trkpt>
      <trkpt lat="45.12689" lon="5.87973">
        <ele>1689</ele>
        <time>2024-07-24T12:42:06+00:00</time>
      </trkpt>
      <trkpt lat="45.12655" lon="5.87948">
        <ele>1680</ele>
        <time>2024-07-24T12:42:09+00:00</time>
      </trkpt>
      <trkpt lat="45.12615" lon="5.87919">
        <ele>1671</ele>
        <time>2024-07-24T12:42:12+00:00</time>
      </trkpt>
    </trkseg>
  </trk>
</gpx>
